Time;durP1;ratioP1;P1;durP2;ratioP2;P2;SDS_P1;SDS_P2;PMS_P1;PMS_P2;Temp;Humidity;BMP_temperature;BMP_pressure;BME280_temperature;BME280_humidity;BME280_pressure;Samples;Min_cycle;Max_cycle;Signal;HPM_P1;HPM_P2
2022/04/21 00:00:18;;;;;;;22.33;9.30;;;;;;;9.01;66.58;101229.41;5065630;28;20096;-70
2022/04/21 00:02:43;;;;;;;21.15;9.55;;;;;;;9.03;66.40;101225.03;5062191;28;20388;-71
2022/04/21 00:05:10;;;;;;;20.85;9.32;;;;;;;9.00;67.22;101218.81;5064376;28;20490;-67
2022/04/21 00:07:35;;;;;;;21.88;9.85;;;;;;;8.93;66.75;101220.47;5062939;28;20024;-65
2022/04/21 00:10:02;;;;;;;21.35;9.40;;;;;;;9.00;67.41;101222.34;5063647;28;20036;-71
2022/04/21 00:12:28;;;;;;;21.33;9.27;;;;;;;8.94;67.30;101218.72;5064248;28;20051;-71
2022/04/21 00:14:54;;;;;;;23.00;9.98;;;;;;;8.86;67.58;101222.09;5062141;28;20029;-71
2022/04/21 00:17:19;;;;;;;20.55;9.18;;;;;;;8.84;67.67;101212.38;5065231;28;20024;-71
2022/04/21 00:19:45;;;;;;;21.40;9.32;;;;;;;8.79;67.88;101209.66;5061894;28;20025;-66
2022/04/21 00:24:54;;;;;;;22.75;9.45;;;;;;;8.71;68.05;101214.81;5062061;28;20039;-71
2022/04/21 00:27:19;;;;;;;24.08;9.48;;;;;;;8.66;68.54;101215.59;5065040;28;20028;-70
2022/04/21 00:29:44;;;;;;;20.65;9.30;;;;;;;8.64;68.48;101215.56;5061353;28;20119;-72
2022/04/21 00:32:10;;;;;;;20.60;8.88;;;;;;;8.65;68.90;101217.34;5064456;28;20024;-63
2022/04/21 00:34:36;;;;;;;22.17;9.63;;;;;;;8.65;68.73;101216.44;5062778;28;20401;-64
2022/04/21 00:37:02;;;;;;;21.60;9.05;;;;;;;8.67;69.10;101212.97;5062781;28;20036;-64
2022/04/21 00:39:27;;;;;;;21.52;8.95;;;;;;;8.72;68.84;101213.97;5063417;28;20107;-63
2022/04/21 00:41:56;;;;;;;20.95;9.35;;;;;;;8.69;68.52;101213.91;5061711;28;20021;-63
2022/04/21 00:44:22;;;;;;;21.35;9.15;;;;;;;8.65;69.04;101209.44;5064347;28;20529;-63
2022/04/21 00:46:47;;;;;;;19.88;9.10;;;;;;;8.50;69.37;101207.44;5061199;28;20021;-64
2022/04/21 00:49:14;;;;;;;24.23;9.40;;;;;;;8.47;70.46;101198.56;5064647;28;20506;-63
2022/04/21 00:51:39;;;;;;;21.92;9.05;;;;;;;8.44;70.66;101193.19;5061506;28;20104;-63
2022/04/21 00:54:05;;;;;;;21.48;9.13;;;;;;;8.44;70.84;101198.47;5063111;28;20029;-63
2022/04/21 00:56:31;;;;;;;20.50;9.57;;;;;;;8.41;70.88;101209.84;5063204;28;20028;-66
2022/04/21 00:58:57;;;;;;;21.63;9.80;;;;;;;8.42;71.16;101203.72;5061709;28;20021;-63
2022/04/21 01:04:07;;;;;;;20.13;8.90;;;;;;;8.38;71.24;101207.16;5063410;28;20063;-64
2022/04/21 01:06:33;;;;;;;22.23;9.65;;;;;;;8.29;71.33;101202.59;5062505;28;20025;-66
2022/04/21 01:08:58;;;;;;;21.48;9.73;;;;;;;8.28;71.72;101199.94;5062233;28;20029;-64
2022/04/21 01:11:24;;;;;;;23.65;9.85;;;;;;;8.24;71.89;101203.34;5064212;28;20100;-63
2022/04/21 01:13:50;;;;;;;21.90;9.88;;;;;;;8.23;71.76;101201.56;5060951;28;20029;-65
2022/04/21 01:16:15;;;;;;;21.48;9.77;;;;;;;8.28;71.96;101200.81;5064653;28;20017;-68
2022/04/21 01:18:41;;;;;;;22.02;9.52;;;;;;;8.29;72.15;101199.94;5062023;28;20418;-70
2022/04/21 01:21:07;;;;;;;20.25;9.55;;;;;;;8.20;72.75;101202.41;5062863;28;20017;-70
2022/04/21 01:23:32;;;;;;;21.70;10.13;;;;;;;8.06;73.28;101201.25;5062330;28;20082;-71
2022/04/21 01:25:58;;;;;;;20.98;9.68;;;;;;;7.96;74.13;101211.56;5062066;28;20013;-71
2022/04/21 01:28:25;;;;;;;21.90;10.30;;;;;;;8.02;74.24;101197.66;5063545;28;20029;-71
2022/04/21 01:30:57;;;;;;;21.48;10.20;;;;;;;7.93;74.87;101203.63;5060956;28;20028;-70
2022/04/21 01:33:23;;;;;;;21.35;9.93;;;;;;;7.92;75.38;101196.59;5064273;28;20084;-68
2022/04/21 01:35:48;;;;;;;20.73;9.50;;;;;;;7.99;75.12;101190.59;5060506;28;20047;-71
2022/04/21 01:41:10;;;;;;;21.88;10.02;;;;;;;7.99;74.73;101200.22;5061543;28;20032;-69
2022/04/21 01:43:36;;;;;;;21.20;9.77;;;;;;;8.04;74.19;101190.69;5061904;28;20036;-69
2022/04/21 01:46:02;;;;;;;21.50;10.23;;;;;;;8.00;74.46;101187.09;5062172;28;20478;-63
2022/04/21 01:48:28;;;;;;;23.27;10.15;;;;;;;8.00;74.16;101191.47;5063160;28;20386;-63
2022/04/21 01:50:53;;;;;;;23.88;10.52;;;;;;;7.90;74.25;101195.66;5063131;28;20037;-63
2022/04/21 01:53:19;;;;;;;22.23;10.57;;;;;;;7.85;75.09;101195.56;5067890;28;20047;-63
2022/04/21 01:55:44;;;;;;;22.88;10.45;;;;;;;7.88;75.19;101188.56;5064575;28;20021;-63
2022/04/21 01:58:09;;;;;;;23.17;10.43;;;;;;;7.89;75.28;101199.13;5066963;28;20029;-63
2022/04/21 02:00:35;;;;;;;21.80;10.32;;;;;;;7.89;75.47;101191.25;5065711;28;20060;-63
2022/04/21 02:03:00;;;;;;;22.63;10.55;;;;;;;7.75;75.34;101193.59;5065388;28;20033;-63
2022/04/21 02:05:26;;;;;;;21.42;10.50;;;;;;;7.72;75.82;101190.00;5066943;28;20119;-63
2022/04/21 02:07:52;;;;;;;22.25;9.50;;;;;;;7.68;75.89;101187.28;5064308;28;20029;-63
2022/04/21 02:10:19;;;;;;;22.38;10.32;;;;;;;7.60;76.08;101191.53;5067404;28;20465;-63
2022/04/21 02:12:45;;;;;;;22.10;10.63;;;;;;;7.57;77.46;101193.19;5064467;28;20071;-63
2022/04/21 02:15:11;;;;;;;22.50;10.70;;;;;;;7.48;77.97;101193.88;5066614;28;20047;-63
2022/04/21 02:17:37;;;;;;;21.90;10.68;;;;;;;7.45;78.55;101192.03;5065087;28;20029;-63
2022/04/21 02:20:08;;;;;;;21.98;10.65;;;;;;;7.39;78.86;101196.31;5065491;28;20100;-63
2022/04/21 02:22:36;;;;;;;22.25;11.07;;;;;;;7.39;78.86;101191.03;5065434;28;20058;-63
2022/04/21 02:25:03;;;;;;;22.42;11.40;;;;;;;7.38;79.23;101191.88;5065265;28;20082;-63
2022/04/21 02:27:29;;;;;;;22.05;10.50;;;;;;;7.37;79.68;101195.34;5066362;28;20051;-63
2022/04/21 02:29:54;;;;;;;23.27;11.23;;;;;;;7.37;79.78;101195.34;5064088;28;20021;-63
2022/04/21 02:32:20;;;;;;;22.90;10.82;;;;;;;7.43;79.72;101196.41;5067309;28;20375;-62
2022/04/21 02:34:46;;;;;;;22.73;10.48;;;;;;;7.39;79.41;101188.41;5063668;28;20031;-63
2022/04/21 02:37:11;;;;;;;21.90;10.70;;;;;;;7.35;79.74;101187.44;5066569;28;20456;-63
2022/04/21 02:39:37;;;;;;;21.70;10.60;;;;;;;7.24;80.06;101192.47;5064658;28;20371;-63
2022/04/21 02:42:02;;;;;;;22.15;10.65;;;;;;;7.16;80.80;101188.75;5065083;28;20056;-63
2022/04/21 02:44:28;;;;;;;23.38;10.50;;;;;;;7.12;80.99;101189.53;5065886;28;20024;-63
2022/04/21 02:46:53;;;;;;;22.70;10.43;;;;;;;7.12;81.29;101189.53;5063864;28;20074;-63
2022/04/21 02:49:19;;;;;;;22.33;10.45;;;;;;;7.13;81.29;101189.56;5066852;28;20020;-63
2022/04/21 02:51:45;;;;;;;22.25;10.45;;;;;;;7.13;81.35;101186.94;5063171;28;20055;-63
2022/04/21 02:59:41;;;;;;;23.55;10.40;;;;;;;7.08;82.10;101183.31;5064664;28;20043;-63
2022/04/21 03:02:06;;;;;;;22.65;10.68;;;;;;;7.02;82.29;101191.06;5063991;28;20044;-63
2022/04/21 03:04:32;;;;;;;21.88;11.00;;;;;;;6.95;82.51;101195.28;5064888;28;20103;-63
2022/04/21 03:06:57;;;;;;;21.55;10.55;;;;;;;6.87;83.13;101188.91;5064066;28;20020;-63
2022/04/21 03:09:22;;;;;;;22.85;10.57;;;;;;;6.75;83.16;101189.50;5066374;28;20471;-63
2022/04/21 03:11:48;;;;;;;21.70;10.60;;;;;;;6.79;83.69;101174.72;5063223;28;20079;-63
2022/04/21 03:14:14;;;;;;;21.70;10.80;;;;;;;6.75;83.79;101179.00;5066420;28;20029;-63
2022/04/21 03:16:39;;;;;;;22.67;10.95;;;;;;;6.71;84.03;101178.88;5063750;28;20029;-63
2022/04/21 03:19:05;;;;;;;22.42;10.52;;;;;;;6.73;84.49;101185.09;5064638;28;20024;-62
2022/04/21 03:24:20;;;;;;;22.02;10.75;;;;;;;6.62;85.20;101177.78;5065805;28;20044;-62
2022/04/21 03:26:52;;;;;;;22.25;10.52;;;;;;;6.52;86.26;101185.41;5062907;28;20083;-63
2022/04/21 03:29:18;;;;;;;;;;;;;;;6.55;83.20;101191.63;5062962;28;20530;-63
2022/04/21 03:31:44;;;;;;;22.92;10.73;;;;;;;6.54;85.79;101184.59;5065703;28;19912;-63
2022/04/21 03:34:13;;;;;;;21.50;10.40;;;;;;;6.50;86.24;101187.13;5063503;28;20051;-63
2022/04/21 03:36:51;;;;;;;25.67;11.10;;;;;;;6.44;86.73;101187.84;5064778;28;20021;-69
2022/04/21 03:39:20;;;;;;;23.80;10.93;;;;;;;6.40;87.27;101183.34;5061068;28;20099;-70
2022/04/21 03:41:46;;;;;;;21.73;10.85;;;;;;;6.43;87.70;101191.28;5065918;28;20029;-69
2022/04/21 03:44:11;;;;;;;22.75;10.70;;;;;;;6.39;87.83;101189.44;5063169;28;20356;-70
2022/04/21 03:46:40;;;;;;;21.83;10.60;;;;;;;6.40;88.19;101191.22;5064219;28;20112;-70
2022/04/21 03:49:06;;;;;;;21.85;10.65;;;;;;;6.33;88.50;101192.78;5064000;28;20104;-70
2022/04/21 03:51:32;;;;;;;22.40;10.45;;;;;;;6.37;88.46;101193.78;5063301;28;20077;-70
2022/04/21 03:53:58;;;;;;;22.60;10.85;;;;;;;6.31;88.98;101191.84;5064799;28;20387;-70
2022/04/21 03:56:23;;;;;;;23.70;11.23;;;;;;;6.23;89.14;101196.00;5062312;28;20025;-70
2022/04/21 03:58:49;;;;;;;22.48;11.30;;;;;;;6.31;89.36;101202.38;5065659;28;20096;-70
2022/04/21 04:01:15;;;;;;;22.70;11.48;;;;;;;6.24;89.54;101197.78;5062409;28;20379;-70
2022/04/21 04:03:42;;;;;;;23.08;11.20;;;;;;;6.13;90.20;101201.84;5064413;28;20040;-70
2022/04/21 04:10:51;;;;;;;23.00;11.23;;;;;;;6.15;90.73;101197.53;5063114;28;20036;-71
2022/04/21 04:11:37;;;;;;;22.35;10.85;;;;;;;6.00;91.25;101192.72;5063170;28;20105;-71
2022/04/21 04:14:05;;;;;;;23.15;11.15;;;;;;;5.97;91.35;101200.47;5062687;28;20021;-70
2022/04/21 04:16:34;;;;;;;23.95;11.05;;;;;;;6.03;91.71;101185.84;5064031;28;20039;-70
2022/04/21 04:19:05;;;;;;;24.13;11.88;;;;;;;6.04;91.92;101191.97;5062524;28;20464;-69
2022/04/21 04:21:30;;;;;;;23.10;11.48;;;;;;;5.98;91.98;101191.81;5063865;28;20021;-63
2022/04/21 04:23:57;;;;;;;23.00;11.32;;;;;;;5.92;92.08;101188.09;5061891;28;20522;-63
2022/04/21 04:26:22;;;;;;;23.17;11.27;;;;;;;5.89;92.53;101188.03;5065188;28;20059;-63
2022/04/21 04:28:49;;;;;;;24.63;11.40;;;;;;;5.85;92.84;101196.66;5061497;28;20021;-63
2022/04/21 04:31:14;;;;;;;24.25;11.98;;;;;;;5.78;93.76;101193.81;5064666;28;20024;-63
2022/04/21 04:33:39;;;;;;;25.65;14.13;;;;;;;5.84;94.33;101193.97;5062459;28;20138;-63
2022/04/21 04:36:05;;;;;;;23.83;12.60;;;;;;;5.80;95.21;101193.00;5063210;28;20486;-63
2022/04/21 04:38:30;;;;;;;23.55;11.55;;;;;;;5.76;95.35;101201.63;5063759;28;20020;-63
2022/04/21 04:40:55;;;;;;;24.65;12.13;;;;;;;5.81;95.07;101202.69;5061519;28;20111;-63
2022/04/21 04:43:22;;;;;;;21.83;11.60;;;;;;;5.78;95.35;101201.69;5064766;28;20035;-63
2022/04/21 04:48:31;;;;;;;24.17;12.15;;;;;;;5.80;95.96;101203.50;5062980;28;20091;-63
2022/04/21 04:50:57;;;;;;;23.20;11.68;;;;;;;5.80;96.08;101200.00;5063900;28;20048;-63
2022/04/21 04:53:22;;;;;;;23.88;11.70;;;;;;;5.81;96.20;101205.31;5060868;28;20557;-63
2022/04/21 04:55:47;;;;;;;25.02;12.05;;;;;;;5.87;96.64;101215.09;5064579;28;20024;-63
2022/04/21 04:58:13;;;;;;;23.45;12.07;;;;;;;5.84;96.85;101210.63;5061556;28;20071;-63
2022/04/21 05:00:39;;;;;;;23.63;12.18;;;;;;;5.91;96.49;101209.06;5063615;28;20021;-63
2022/04/21 05:03:04;;;;;;;25.48;12.45;;;;;;;5.88;96.33;101211.59;5063135;28;20163;-65
2022/04/21 05:05:29;;;;;;;24.35;12.60;;;;;;;5.92;96.52;101211.72;5062131;28;20047;-66
2022/04/21 05:07:54;;;;;;;23.15;12.00;;;;;;;6.03;96.39;101211.19;5064239;28;20470;-64
2022/04/21 05:10:21;;;;;;;24.33;12.18;;;;;;;6.03;96.11;101203.31;5060905;28;20025;-67
2022/04/21 05:12:46;;;;;;;23.25;12.50;;;;;;;6.09;96.25;101200.88;5064302;28;20081;-65
2022/04/21 05:15:12;;;;;;;24.25;12.50;;;;;;;6.15;96.14;101206.28;5061954;28;20178;-65
2022/04/21 05:17:37;;;;;;;23.58;12.18;;;;;;;6.21;95.62;101208.22;5062715;28;20036;-65
2022/04/21 05:20:03;;;;;;;24.80;12.10;;;;;;;6.26;95.19;101199.63;5062914;28;20028;-66
2022/04/21 05:22:37;;;;;;;26.73;12.70;;;;;;;6.32;95.07;101201.53;5061945;28;20384;-64
2022/04/21 05:25:08;;;;;;;22.80;12.27;;;;;;;6.39;94.93;101206.09;5063841;28;20115;-64
2022/04/21 05:27:34;;;;;;;25.08;12.45;;;;;;;6.44;94.07;101198.34;5066159;28;20388;-69
2022/04/21 05:32:47;;;;;;;25.88;12.57;;;;;;;6.59;94.57;101203.09;5067985;28;20162;-64
2022/04/21 05:35:13;;;;;;;25.15;13.40;;;;;;;6.61;94.43;101197.03;5065870;28;20028;-66
2022/04/21 05:37:39;;;;;;;24.83;13.10;;;;;;;6.66;94.44;101197.16;5069704;28;20040;-65
2022/04/21 05:40:05;;;;;;;27.73;13.95;;;;;;;6.74;93.90;101203.50;5073646;28;20471;-64
2022/04/21 05:42:35;;;;;;;26.52;13.55;;;;;;;6.79;92.34;101201.00;5073858;28;20455;-64
2022/04/21 05:45:02;;;;;;;26.58;13.70;;;;;;;6.89;94.23;101197.75;5070781;28;20158;-63
2022/04/21 05:47:27;;;;;;;26.20;13.98;;;;;;;6.98;93.28;101199.72;5073506;28;20494;-63
2022/04/21 05:49:53;;;;;;;26.02;12.68;;;;;;;7.09;93.00;101205.22;5056536;28;20020;-63
2022/04/21 05:52:23;;;;;;;25.40;12.65;;;;;;;7.21;90.81;101202.00;5074044;28;20157;-64
2022/04/21 05:54:48;;;;;;;25.40;12.50;;;;;;;7.28;91.41;101199.56;5073691;28;20033;-65
2022/04/21 05:57:14;;;;;;;25.15;12.35;;;;;;;7.36;90.95;101198.88;5074282;28;20036;-65
2022/04/21 05:59:39;;;;;;;24.75;12.15;;;;;;;7.45;91.02;101199.06;5074244;28;20537;-64
2022/04/21 06:02:06;;;;;;;23.85;12.63;;;;;;;7.53;90.00;101201.84;5074056;28;20024;-64
2022/04/21 06:04:31;;;;;;;23.83;12.13;;;;;;;7.61;89.41;101200.31;5074242;28;20374;-63
2022/04/21 06:06:57;;;;;;;26.10;12.02;;;;;;;7.67;88.96;101201.34;5072209;28;20028;-65
2022/04/21 06:09:22;;;;;;;24.77;11.85;;;;;;;7.74;87.57;101199.72;5074073;28;20025;-64
2022/04/21 06:11:49;;;;;;;23.55;12.10;;;;;;;7.77;84.88;101202.41;5074207;28;20124;-64
2022/04/21 06:14:15;;;;;;;25.88;11.90;;;;;;;7.84;83.41;101200.81;5073492;28;20047;-64
2022/04/21 06:16:40;;;;;;;23.10;11.02;;;;;;;7.92;83.37;101193.97;5073248;28;20028;-64
2022/04/21 06:19:05;;;;;;;22.58;11.25;;;;;;;7.98;82.03;101198.44;5073443;28;20024;-64
2022/04/21 06:21:31;;;;;;;24.55;11.80;;;;;;;8.03;82.37;101197.69;5073490;28;20029;-64
2022/04/21 06:23:56;;;;;;;24.20;11.43;;;;;;;8.07;82.17;101187.22;5067867;28;20139;-64
2022/04/21 06:26:25;;;;;;;24.55;12.30;;;;;;;8.17;82.49;101192.69;5069559;28;20139;-63
2022/04/21 06:28:51;;;;;;;23.80;11.48;;;;;;;8.23;80.75;101191.94;5073229;28;20463;-66
2022/04/21 06:31:16;;;;;;;23.40;11.85;;;;;;;8.34;79.54;101189.50;5073396;28;20079;-64
2022/04/21 06:33:41;;;;;;;25.55;12.60;;;;;;;8.41;81.22;101191.41;5073053;28;20024;-65
2022/04/21 06:36:07;;;;;;;24.85;12.10;;;;;;;8.52;81.02;101196.91;5072752;28;20040;-65
2022/04/21 06:38:33;;;;;;;27.63;12.13;;;;;;;8.61;79.29;101188.28;5073080;28;20013;-66
2022/04/21 06:40:58;;;;;;;24.17;11.93;;;;;;;8.70;79.53;101193.72;5073534;28;20028;-66
2022/04/21 06:48:51;;;;;;;24.40;11.88;;;;;;;8.99;76.17;101191.56;5071173;28;20093;-65
2022/04/21 06:51:18;;;;;;;23.30;11.85;;;;;;;9.09;77.56;101184.69;5073030;28;20044;-66
2022/04/21 06:53:44;;;;;;;22.67;11.52;;;;;;;9.17;75.27;101175.13;5073180;28;20104;-65
2022/04/21 06:56:12;;;;;;;22.55;11.50;;;;;;;9.23;74.06;101179.63;5073096;28;20040;-64
2022/04/21 06:58:37;;;;;;;24.10;11.60;;;;;;;9.33;74.16;101170.97;5072862;28;20039;-66
2022/04/21 07:01:04;;;;;;;24.20;11.80;;;;;;;9.40;72.79;101172.84;5072416;28;20025;-65
2022/04/21 07:03:29;;;;;;;22.85;11.02;;;;;;;9.51;72.38;101182.66;5072655;28;20391;-65
2022/04/21 07:05:55;;;;;;;26.13;11.57;;;;;;;9.55;72.06;101179.19;5070506;28;20047;-65
2022/04/21 07:08:22;;;;;;;23.38;11.35;;;;;;;9.60;70.25;101180.16;5072822;28;20028;-67
2022/04/21 07:10:47;;;;;;;24.45;11.40;;;;;;;9.67;69.76;101171.47;5073259;28;20423;-66
2022/04/21 07:13:13;;;;;;;23.88;11.52;;;;;;;9.85;72.30;101172.56;5072931;28;20025;-66
2022/04/21 07:15:42;;;;;;;23.20;11.40;;;;;;;9.94;70.16;101180.59;5072803;28;20112;-67
2022/04/21 07:18:08;;;;;;;23.67;11.32;;;;;;;10.03;68.81;101179.81;5072529;28;20029;-67
2022/04/21 07:20:34;;;;;;;22.90;11.30;;;;;;;10.10;68.62;101187.81;5072812;28;20031;-68
2022/04/21 07:23:00;;;;;;;22.65;11.30;;;;;;;10.16;68.02;101176.44;5072626;28;20410;-66
2022/04/21 07:25:25;;;;;;;23.10;10.73;;;;;;;10.20;66.80;101182.66;5072601;28;20040;-67
2022/04/21 07:27:51;;;;;;;24.00;11.07;;;;;;;10.29;66.93;101180.13;5071510;28;20446;-66
2022/04/21 07:30:16;;;;;;;24.02;10.93;;;;;;;10.37;63.87;101189.06;5068831;28;20038;-65
2022/04/21 07:32:44;;;;;;;24.55;10.77;;;;;;;10.42;62.98;101189.09;5067098;28;20383;-65
2022/04/21 07:35:10;;;;;;;24.98;11.10;;;;;;;10.54;64.45;101201.56;5071888;28;20032;-65
2022/04/21 07:37:37;;;;;;;25.15;11.25;;;;;;;10.63;64.31;101196.38;5072291;28;20066;-64
2022/04/21 07:40:06;;;;;;;22.02;10.05;;;;;;;10.71;63.27;101201.72;5064720;28;20371;-66
2022/04/21 07:42:32;;;;;;;22.20;10.45;;;;;;;10.79;62.56;101194.72;5068743;28;20028;-64
2022/04/21 07:44:58;;;;;;;22.92;10.57;;;;;;;10.86;62.58;101195.69;5071721;28;20024;-64
2022/04/21 07:47:24;;;;;;;23.15;10.65;;;;;;;10.98;63.30;101201.09;5071243;28;20479;-64
2022/04/21 07:49:49;;;;;;;24.38;11.35;;;;;;;11.03;61.55;101193.19;5071346;28;20074;-64
2022/04/21 07:55:18;;;;;;;23.20;10.65;;;;;;;11.25;62.55;101186.28;5064786;28;20700;-65
2022/04/21 07:57:45;;;;;;;23.42;10.95;;;;;;;11.34;61.94;101178.41;5062145;28;20383;-65
2022/04/21 08:00:13;;;;;;;24.85;10.50;;;;;;;11.43;61.77;101185.53;5061749;28;20475;-66
2022/04/21 08:02:40;;;;;;;24.10;10.80;;;;;;;11.51;59.47;101192.63;5062678;28;20024;-65
2022/04/21 08:05:06;;;;;;;23.15;10.93;;;;;;;11.78;59.75;101183.09;5062443;28;20029;-64
2022/04/21 08:07:31;;;;;;;23.83;10.43;;;;;;;12.31;59.63;101183.31;5061438;28;20017;-69
2022/04/21 08:09:58;;;;;;;22.58;9.60;;;;;;;13.06;56.62;101187.78;5063147;28;20028;-64
2022/04/21 08:12:24;;;;;;;23.27;10.25;;;;;;;13.58;54.96;101184.22;5066027;28;20099;-64
2022/04/21 08:14:49;;;;;;;22.55;9.57;;;;;;;13.95;52.81;101187.63;5061904;28;20151;-64
2022/04/21 08:17:14;;;;;;;23.20;9.32;;;;;;;14.41;52.30;101188.28;5061715;28;20092;-68
2022/04/21 08:19:40;;;;;;;23.27;9.13;;;;;;;14.51;50.62;101191.78;5064567;28;20028;-67
2022/04/21 08:22:06;;;;;;;21.00;8.77;;;;;;;14.81;48.99;101185.41;5062701;28;20020;-66
2022/04/21 08:32:44;;;;;;;22.13;9.20;;;;;;;15.70;46.85;101194.31;5067756;28;20118;-65
2022/04/21 08:35:13;;;;;;;21.15;8.18;;;;;;;15.54;46.13;101190.94;5067479;28;20035;-64
2022/04/21 08:37:40;;;;;;;21.60;8.48;;;;;;;15.44;47.74;101176.81;5071395;28;20475;-64
2022/04/21 08:40:06;;;;;;;21.02;8.70;;;;;;;15.77;47.58;101195.09;5070438;28;20547;-64
2022/04/21 08:42:39;;;;;;;20.10;8.25;;;;;;;15.91;46.58;101182.53;5067858;28;20153;-64
2022/04/21 08:45:05;;;;;;;22.42;8.43;;;;;;;16.08;45.26;101185.00;5064327;28;20028;-63
2022/04/21 08:47:32;;;;;;;20.20;8.40;;;;;;;16.36;45.33;101180.16;5061708;28;20402;-64
2022/04/21 08:50:11;;;;;;;21.50;8.85;;;;;;;16.78;44.54;101186.66;5061114;28;20031;-64
2022/04/21 08:52:37;;;;;;;20.20;8.15;;;;;;;17.24;43.09;101183.22;5060001;28;20052;-72
2022/04/21 08:55:04;;;;;;;21.73;8.30;;;;;;;17.69;42.03;101177.03;5062581;28;20021;-64
2022/04/21 08:57:35;;;;;;;20.48;8.07;;;;;;;17.84;42.10;101176.75;5070472;28;20228;-64
2022/04/21 09:00:01;;;;;;;20.05;8.10;;;;;;;18.08;40.57;101178.03;5070448;28;20031;-65
2022/04/21 09:02:34;;;;;;;22.40;8.15;;;;;;;18.52;41.54;101179.75;5070882;28;20138;-64
2022/04/21 09:04:59;;;;;;;20.52;7.40;;;;;;;18.56;39.93;101176.97;5061520;28;20043;-64
2022/04/21 09:07:25;;;;;;;19.25;7.72;;;;;;;18.74;39.45;101177.44;5059712;28;20382;-64
2022/04/21 09:10:04;;;;;;;19.13;7.00;;;;;;;19.38;38.98;101169.56;5061871;28;20074;-64
2022/04/21 09:12:30;;;;;;;19.23;7.13;;;;;;;19.58;36.75;101166.34;5057650;28;20036;-64
2022/04/21 09:14:57;;;;;;;18.77;6.40;;;;;;;19.62;36.05;101165.34;5060145;28;20387;-64
2022/04/21 09:17:23;;;;;;;19.80;6.63;;;;;;;19.33;36.10;101163.47;5060707;28;20024;-64
2022/04/21 09:19:56;;;;;;;18.63;6.10;;;;;;;18.60;37.30;101164.41;5061295;28;20036;-65
2022/04/21 09:22:22;;;;;;;18.13;5.80;;;;;;;18.35;36.89;101156.94;5060287;28;20028;-65
2022/04/21 09:24:51;;;;;;;17.30;5.90;;;;;;;18.95;37.06;101162.69;5060081;28;20097;-64
2022/04/21 09:27:17;;;;;;;17.77;5.80;;;;;;;19.92;34.83;101156.47;5060491;28;20031;-64
2022/04/21 09:29:42;;;;;;;17.85;6.30;;;;;;;20.71;33.49;101154.97;5061430;28;20585;-65
2022/04/21 09:32:07;;;;;;;18.60;6.47;;;;;;;21.06;32.39;101147.50;5060645;28;20020;-64
2022/04/21 09:34:37;;;;;;;18.75;6.38;;;;;;;21.51;31.94;101159.38;5061210;28;20159;-64
2022/04/21 09:37:05;;;;;;;18.10;6.30;;;;;;;21.71;31.86;101151.47;5066117;28;20024;-64
2022/04/21 09:39:31;;;;;;;21.15;6.30;;;;;;;21.84;31.21;101148.31;5069995;28;20027;-64
2022/04/21 09:41:56;;;;;;;18.85;6.32;;;;;;;21.83;30.63;101154.63;5071220;28;20020;-64
2022/04/21 09:47:21;;;;;;;18.10;6.40;;;;;;;22.13;30.20;101149.88;5068682;28;20043;-65
2022/04/21 09:49:47;;;;;;;18.17;5.90;;;;;;;21.62;29.70;101151.81;5070157;28;20025;-65
2022/04/21 09:52:13;;;;;;;18.65;6.45;;;;;;;22.24;31.08;101152.16;5070285;28;20475;-65
2022/04/21 09:54:41;;;;;;;18.02;5.78;;;;;;;22.76;28.12;101151.88;5070311;28;20445;-64
2022/04/21 09:57:07;;;;;;;18.00;5.85;;;;;;;23.11;28.07;101142.34;5070288;28;20381;-65
2022/04/21 09:59:36;;;;;;;18.13;5.53;;;;;;;23.49;26.15;101141.59;5070036;28;20032;-65
2022/04/21 10:02:03;;;;;;;15.50;4.90;;;;;;;23.63;24.66;101128.31;5070563;28;20020;-65
2022/04/21 10:04:29;;;;;;;16.13;5.55;;;;;;;24.23;26.02;101132.75;5063490;28;20114;-65
2022/04/21 10:06:56;;;;;;;18.63;5.88;;;;;;;24.70;26.42;101137.69;5063646;28;20025;-65
2022/04/21 10:09:23;;;;;;;17.13;5.40;;;;;;;25.24;24.63;101132.19;5060408;28;20108;-65
2022/04/21 10:11:51;;;;;;;15.95;4.60;;;;;;;24.85;24.10;101135.16;5065591;28;20066;-65
2022/04/21 10:14:17;;;;;;;16.33;5.00;;;;;;;24.86;24.30;101131.50;5064187;28;20016;-65
2022/04/21 10:16:43;;;;;;;16.58;5.10;;;;;;;24.82;23.80;101133.47;5064333;28;20109;-65
2022/04/21 10:19:10;;;;;;;16.48;5.00;;;;;;;25.16;23.84;101115.50;5067326;28;20035;-65
2022/04/21 10:21:49;;;;;;;16.70;4.80;;;;;;;25.45;23.31;101123.06;5064563;28;20021;-65
2022/04/21 10:24:29;;;;;;;14.55;4.13;;;;;;;24.85;22.67;101110.81;5064359;28;20215;-65
2022/04/21 10:26:56;;;;;;;14.13;4.40;;;;;;;25.09;22.08;101115.91;5066080;28;20107;-65
2022/04/21 10:29:27;;;;;;;14.85;4.18;;;;;;;25.39;21.49;101118.84;5064591;28;20057;-65
2022/04/21 10:31:59;;;;;;;14.17;4.40;;;;;;;25.23;21.50;101103.41;5065965;28;20097;-65
2022/04/21 10:34:46;;;;;;;12.70;4.25;;;;;;;24.94;22.77;101113.03;5065168;28;20362;-71
2022/04/21 10:37:20;;;;;;;11.68;3.90;;;;;;;26.00;21.41;101108.34;5063574;28;20033;-72
2022/04/21 10:40:03;;;;;;;11.35;4.20;;;;;;;25.67;21.17;101099.25;5063692;28;20029;-70
2022/04/21 10:42:29;;;;;;;15.27;4.25;;;;;;;24.09;21.91;101097.47;5065168;28;20107;-70
2022/04/21 10:44:55;;;;;;;16.55;5.00;;;;;;;24.41;23.56;101103.97;5065050;28;20440;-70
2022/04/21 10:47:30;;;;;;;17.23;4.93;;;;;;;25.56;23.10;101091.75;5065926;28;20027;-69
2022/04/21 10:50:19;;;;;;;12.02;3.80;;;;;;;26.82;20.64;101104.50;5065476;28;20361;-70
2022/04/21 10:58:34;;;;;;;10.98;3.80;;;;;;;27.60;19.07;101081.69;5065229;28;20040;-72
2022/04/21 11:01:09;;;;;;;13.48;3.92;;;;;;;28.23;18.83;101084.91;5064138;28;20039;-71
2022/04/21 11:03:38;;;;;;;12.25;3.80;;;;;;;28.72;17.99;101086.19;5066390;28;20449;-69
2022/04/21 11:06:16;;;;;;;17.25;4.07;;;;;;;28.80;18.42;101083.81;5063651;28;20509;-71
2022/04/21 11:08:43;;;;;;;12.90;3.80;;;;;;;29.02;17.10;101083.19;5063250;28;20017;-66
2022/04/21 11:11:09;;;;;;;11.85;3.60;;;;;;;29.36;16.95;101080.88;5063054;28;20486;-71
2022/04/21 11:13:40;;;;;;;12.88;4.20;;;;;;;29.14;16.91;101086.91;5066004;28;20020;-72
2022/04/21 11:16:05;;;;;;;15.00;4.00;;;;;;;29.41;16.17;101075.09;5065678;28;20029;-71
2022/04/21 11:18:31;;;;;;;12.93;4.38;;;;;;;29.65;17.25;101064.25;5063027;28;20029;-64
2022/04/21 11:21:21;;;;;;;14.02;4.20;;;;;;;29.88;17.32;101076.22;5062937;28;20030;-65
2022/04/21 11:23:46;;;;;;;15.07;4.22;;;;;;;29.44;16.77;101062.13;5063622;28;20464;-64
2022/04/21 11:26:12;;;;;;;12.07;3.87;;;;;;;29.56;16.59;101061.25;5065017;28;20055;-65
2022/04/21 11:28:46;;;;;;;11.35;3.80;;;;;;;30.16;15.78;101060.53;5063313;28;20274;-64
2022/04/21 11:31:12;;;;;;;11.35;3.90;;;;;;;30.21;16.90;101053.75;5061337;28;20040;-68
2022/04/21 11:33:40;;;;;;;14.65;3.70;;;;;;;29.71;15.94;101053.78;5064225;28;20025;-74
2022/04/21 11:36:12;;;;;;;13.48;3.95;;;;;;;28.98;16.99;101046.28;5062451;28;20045;-64
2022/04/21 11:38:42;;;;;;;12.52;4.00;;;;;;;28.78;17.20;101034.13;5064610;28;20025;-64
2022/04/21 11:41:09;;;;;;;11.48;3.80;;;;;;;29.17;16.81;101030.44;5064280;28;20044;-65
2022/04/21 11:43:36;;;;;;;12.77;3.65;;;;;;;29.55;16.74;101031.41;5063743;28;20020;-65
2022/04/21 11:46:05;;;;;;;13.38;4.10;;;;;;;30.16;15.59;101036.91;5063131;28;20027;-66
2022/04/21 11:48:40;;;;;;;10.95;3.60;;;;;;;31.22;15.09;101037.88;5064193;28;20052;-64
2022/04/21 11:51:06;;;;;;;14.80;4.05;;;;;;;31.97;14.38;101033.66;5063771;28;20027;-66
2022/04/21 11:53:34;;;;;;;15.30;4.25;;;;;;;31.97;14.42;101036.38;5064414;28;20025;-64
2022/04/21 11:56:01;;;;;;;15.73;4.15;;;;;;;31.78;15.82;101035.16;5062246;28;20036;-65
2022/04/21 11:58:34;;;;;;;14.90;4.45;;;;;;;32.38;14.64;101034.78;5061293;28;20031;-65
2022/04/21 12:06:47;;;;;;;12.60;4.10;;;;;;;32.60;14.53;101036.53;5072261;28;20136;-82
2022/04/21 12:09:17;;;;;;;13.40;3.90;;;;;;;32.99;14.11;101023.13;5069857;28;20051;-72
2022/04/21 12:11:48;;;;;;;12.90;3.83;;;;;;;33.32;13.61;101017.56;5069253;28;20035;-70